Canefield Airport

Cloudy with adjacent showers and slight dust haze
32oC (90oF)

Cloudy with adjacent showers and slight dust haze


Winds: West south westerly @ 01kt / 02km/h

Humidity: 60%

Barometric Pressure: 1011 mb

Accumulated Rainfall for April: 25.3 mm

Updated: 16:00 local time (20:00 UTC)

Douglas-Charles Airport

Cloudy and hazy
26oC (79oF)

Cloudy and hazy


Winds: Variable @ 02kts / 04km/h

Humidity: 99%

Barometric Pressure: 1014 mb

Accumulated Rainfall for April: 60.7 mm

Updated: 20:00 local time (00:00 UTC)

Satellite Imagery

Satellite Imagery
Click image for larger view.
(Source: National Hurricane Center).

Aviation Routine Report (METAR)

Douglas-Charles: METAR TDPD 210000Z 29002KT 9999 SCT017 26/26 Q1014=
Canefield: METAR TDCF 202000Z 25001KT 9999 BKN018 32/23 Q1011=